aviador You're here:

KBWW Decoded Metar

in
Report Time2017-04-25 06:35:00
UTC Time2017-04-25 06:38:07
Flight Rules ifr IFR
Wind040° at 13 kt
W.Decomp.*RWY 13: 13 kt LCW
W.Rank040° ranks 31
Current wind is above 040° avg. (10.9)
Visibility9999 m
Phenomena:N/A
Clouds:Overcast 006 Hf
Expected CloudBase > 400 ft AGL from Temp-Dew spread
Ceiling600 ft
Temp-1°C
Dew Point-2°C (93% RH)
AAT-7.9°C
QNH1003 hPa
Raw Report
KBWW 250635Z AUTO 04013KT 10SM OVC006 M01/M02 A2962 RMK AO2=

Extra information for KBWW:More info

Social comments